Dr. Hank Kaplan — WDJ3839 — position and weather

sailwx.info

Track history (hours):
 
Tides and Currents Weather Stations Pressure Air Temp Water Temp Dewpoint Dewpoint Depression Visibility Wind Speed Wind Dir Waves Ship Positions

Dr. Hank Kaplan

Owner: Harley Marine Services, Inc., Seattle, WA. More information available from US FCC via Universal Licensing System and Coast Guard Vessel Documentation Center.

Last reported at 2017-Nov-19 17:59 UTC. Time now 2017-Nov-19 18:23 UTC.
Position N 48°31' W 122°37'.

Length 24 m; draft 5.1 m.

Type: Tug. MMSI: 367719100.

Date/timePositionNaut miles runAvg speedWind from/ knotsBaromVisibWave heightAir tempDewpointWater temp
2017-Nov-19 17:59N 48°31' W 122°37'0 0.0
2017-Nov-19 17:30N 48°31' W 122°37'0 0.0
2017-Nov-19 17:00N 48°31' W 122°37'2 4.6
2017-Nov-19 16:30N 48°33' W 122°35'4 8.1
2017-Nov-19 16:00N 48°37' W 122°37'4 8.5
2017-Nov-19 15:30N 48°40' W 122°41'4 7.1
2017-Nov-19 15:01N 48°43' W 122°44'5 8.4
2017-Nov-19 14:28N 48°48' W 122°44'1 0.2
2017-Nov-19 07:03N 48°49' W 122°43'1 2.1
2017-Nov-19 06:40N 48°48' W 122°44'1 4.8
2017-Nov-19 06:25N 48°47' W 122°44'3 6.6
2017-Nov-19 06:00N 48°45' W 122°45'5 9.9
2017-Nov-19 05:30N 48°40' W 122°41'510.1
2017-Nov-19 05:00N 48°36' W 122°37'5 9.3
2017-Nov-19 04:30N 48°32' W 122°35'1 2.1
2017-Nov-19 03:58N 48°31' W 122°37'0 0.0
2017-Nov-19 03:28N 48°31' W 122°37'0 0.0
2017-Nov-19 02:55N 48°31' W 122°37'1 1.8
2017-Nov-19 02:30N 48°31' W 122°36'1 1.4
2017-Nov-19 02:00N 48°31' W 122°35'0 0.9
2017-Nov-19 01:31N 48°31' W 122°35'3 6.2
2017-Nov-19 01:00N 48°34' W 122°35'3 6.5
2017-Nov-19 00:30N 48°37' W 122°34'1 2.9
2017-Nov-19 00:00N 48°36' W 122°35'5 9.5
2017-Nov-18 23:31N 48°31' W 122°37'0 0.3
2017-Nov-18 23:00N 48°31' W 122°37'0 0.0
2017-Nov-18 22:30N 48°31' W 122°37'0 0.0
2017-Nov-18 22:00N 48°31' W 122°37'0 0.0
2017-Nov-18 21:30N 48°31' W 122°37'4 8.0
2017-Nov-18 21:00N 48°30' W 122°43'611.1
2017-Nov-18 20:30N 48°25' W 122°44'611.0
2017-Nov-18 19:59N 48°19' W 122°46'2010.5
2017-Nov-18 18:03N 48°00' W 122°36'112.7
2017-Nov-18 17:59N 47°59' W 122°35'612.0
2017-Nov-18 17:31N 47°55' W 122°29'611.8
2017-Nov-18 17:00N 47°50' W 122°27'611.5
2017-Nov-18 16:30N 47°44' W 122°26'510.2
2017-Nov-18 16:01N 47°39' W 122°27'611.4
2017-Nov-18 15:30N 47°33' W 122°26'511.0
2017-Nov-18 15:00N 47°28' W 122°24'510.9
2017-Nov-18 14:30N 47°23' W 122°21'511.0
2017-Nov-18 14:01N 47°19' W 122°27'3 6.5
2017-Nov-18 13:30N 47°16' W 122°24'1 1.5
2017-Nov-18 13:01N 47°16' W 122°23'0 0.1
2017-Nov-18 12:30N 47°16' W 122°23'2 4.1
2017-Nov-18 12:00N 47°18' W 122°25'0 0.0
2017-Nov-18 10:25N 47°18' W 122°25'0 0.0
2017-Nov-18 08:01N 47°18' W 122°25'0 0.0
2017-Nov-18 07:37N 47°18' W 122°25'1 5.2
2017-Nov-18 07:31N 47°17' W 122°25'2 3.4
2017-Nov-18 07:00N 47°15' W 122°26'1 2.0
2017-Nov-18 06:30N 47°16' W 122°27'1 1.9
2017-Nov-18 06:00N 47°17' W 122°27'1 1.4
2017-Nov-18 05:30N 47°17' W 122°27'1 2.2
2017-Nov-18 05:01N 47°16' W 122°25'1 1.9
2017-Nov-18 04:31N 47°17' W 122°25'4 7.7
2017-Nov-18 04:01N 47°21' W 122°26'5 9.3
2017-Nov-18 03:30N 47°25' W 122°23'611.2
2017-Nov-18 03:00N 47°30' W 122°26'5 9.6
2017-Nov-18 02:31N 47°35' W 122°26'4 7.5
2017-Nov-18 02:00N 47°35' W 122°21'0 0.8
2017-Nov-18 01:29N 47°34' W 122°21'0 0.0
2017-Nov-18 00:55N 47°34' W 122°21'0 0.0
2017-Nov-18 00:28N 47°34' W 122°21'0 0.0
2017-Nov-17 23:58N 47°34' W 122°21'0 0.0
2017-Nov-17 23:29N 47°34' W 122°21'0 0.0
2017-Nov-17 22:58N 47°34' W 122°21'0 0.0
2017-Nov-17 22:28N 47°34' W 122°21'0 0.0
2017-Nov-17 22:00N 47°34' W 122°21'1 1.3
2017-Nov-17 21:31N 47°35' W 122°21'1 2.8
2017-Nov-17 21:00N 47°36' W 122°21'0 0.5
2017-Nov-17 20:30N 47°37' W 122°21'2 4.3
2017-Nov-17 19:58N 47°34' W 122°21'0 0.1
2017-Nov-17 19:29N 47°34' W 122°21'0 0.0
2017-Nov-17 18:59N 47°34' W 122°21'0 0.0
2017-Nov-17 18:26N 47°34' W 122°21'0 0.0
2017-Nov-17 17:59N 47°34' W 122°21'0 0.0
2017-Nov-17 17:29N 47°34' W 122°21'0 0.0
2017-Nov-17 16:59N 47°34' W 122°21'0 0.0
2017-Nov-17 16:29N 47°34' W 122°21'0 0.0
2017-Nov-17 15:59N 47°34' W 122°21'0 0.0
2017-Nov-17 15:29N 47°34' W 122°21'0 0.0
2017-Nov-17 14:59N 47°34' W 122°21'0 0.0
2017-Nov-17 14:29N 47°34' W 122°21'0 0.0
2017-Nov-17 13:59N 47°34' W 122°21'0 0.0
2017-Nov-17 13:29N 47°34' W 122°21'0 0.0
2017-Nov-17 12:59N 47°34' W 122°21'0 0.0
2017-Nov-17 12:29N 47°34' W 122°21'0 0.0
2017-Nov-17 11:59N 47°34' W 122°21'0 0.0
2017-Nov-17 11:29N 47°34' W 122°21'0 0.0
2017-Nov-17 10:59N 47°34' W 122°21'0 0.0
2017-Nov-17 10:30N 47°34' W 122°21'3 5.9
2017-Nov-17 10:01N 47°37' W 122°23'510.1
2017-Nov-17 09:30N 47°41' W 122°28'510.9
2017-Nov-17 09:00N 47°46' W 122°27'510.9
2017-Nov-17 08:30N 47°51' W 122°29'510.8
2017-Nov-17 08:00N 47°56' W 122°32'1511.2
2017-Nov-17 06:38N 48°09' W 122°45'211.0
2017-Nov-17 06:27N 48°11' W 122°47'4 9.6
2017-Nov-17 05:59N 48°15' W 122°49'511.3
2017-Nov-17 05:30N 48°20' W 122°47'612.3
2017-Nov-17 05:01N 48°26' W 122°45'713.6
2017-Nov-17 04:30N 48°33' W 122°45'713.2
2017-Nov-17 04:01N 48°40' W 122°44'611.7
2017-Nov-17 03:28N 48°46' W 122°45'4 0.2
2017-Nov-16 07:41N 48°49' W 122°43'1 3.5
2017-Nov-16 07:24N 48°49' W 122°44'1 0.1
2017-Nov-15 22:39N 48°49' W 122°43'0 0.1
2017-Nov-15 22:08N 48°49' W 122°43'0 3.6
2017-Nov-15 22:00N 48°49' W 122°43'612.2
2017-Nov-15 21:31N 48°43' W 122°44'612.6
2017-Nov-15 21:00N 48°38' W 122°38'612.0
2017-Nov-15 20:30N 48°32' W 122°34'2 4.0
2017-Nov-15 20:00N 48°31' W 122°37'0 0.0
2017-Nov-15 19:30N 48°31' W 122°37'0 0.0
2017-Nov-15 19:00N 48°31' W 122°37'0 0.2
2017-Nov-15 18:30N 48°31' W 122°36'0 0.1
2017-Nov-15 18:00N 48°31' W 122°36'1 2.9
2017-Nov-15 17:30N 48°31' W 122°35'1 2.0
2017-Nov-15 17:00N 48°31' W 122°36'1 1.3
2017-Nov-15 16:30N 48°31' W 122°37'0 0.0
2017-Nov-15 15:54N 48°31' W 122°37'0 0.0
2017-Nov-15 15:30N 48°31' W 122°37'0 0.0
2017-Nov-15 15:00N 48°31' W 122°37'0 0.0
2017-Nov-15 14:30N 48°31' W 122°37'0 0.0
2017-Nov-15 14:00N 48°31' W 122°37'0 0.0
2017-Nov-15 13:24N 48°31' W 122°37'0 0.0
2017-Nov-15 13:00N 48°31' W 122°37'0 0.0
2017-Nov-15 12:30N 48°31' W 122°37'0 0.0
2017-Nov-15 12:00N 48°31' W 122°37'0 0.0
2017-Nov-15 11:30N 48°31' W 122°37'0 0.0
2017-Nov-15 11:00N 48°31' W 122°37'0 0.0
2017-Nov-15 10:30N 48°31' W 122°37'0 0.0
2017-Nov-15 10:00N 48°31' W 122°37'0 0.0
2017-Nov-15 09:15N 48°31' W 122°37'0 0.0
2017-Nov-15 09:00N 48°31' W 122°37'0 0.0
2017-Nov-15 08:27N 48°31' W 122°37'0 0.0
2017-Nov-15 07:57N 48°31' W 122°37'0 0.0
2017-Nov-15 07:27N 48°31' W 122°37'0 0.0
2017-Nov-15 07:00N 48°31' W 122°37'0 0.0
2017-Nov-15 06:30N 48°31' W 122°37'0 0.1
2017-Nov-15 06:01N 48°31' W 122°37'2 3.5
2017-Nov-15 05:30N 48°30' W 122°34'1 1.8
2017-Nov-15 05:01N 48°31' W 122°35'3 6.3
2017-Nov-15 04:30N 48°34' W 122°35'3 5.8
2017-Nov-15 04:01N 48°32' W 122°34'2 3.4
2017-Nov-15 03:30N 48°31' W 122°37'0 0.0
2017-Nov-15 02:55N 48°31' W 122°37'0 0.0
2017-Nov-15 02:25N 48°31' W 122°37'0 0.0
2017-Nov-15 01:55N 48°31' W 122°37'0 0.0
2017-Nov-15 01:19N 48°31' W 122°37'0 0.0
2017-Nov-15 00:55N 48°31' W 122°37'0 0.0
2017-Nov-15 00:28N 48°31' W 122°37'0 0.0
2017-Nov-14 23:55N 48°31' W 122°37'0 0.0
2017-Nov-14 23:19N 48°31' W 122°37'0 0.0
2017-Nov-14 22:55N 48°31' W 122°37'0 0.0
2017-Nov-14 22:28N 48°31' W 122°37'0 0.0
2017-Nov-14 21:55N 48°31' W 122°37'0 0.0
2017-Nov-14 21:25N 48°31' W 122°37'0 0.0
2017-Nov-14 20:59N 48°31' W 122°37'0 0.0
2017-Nov-14 20:30N 48°31' W 122°37'0 0.0
2017-Nov-14 20:00N 48°31' W 122°37'1 2.2
2017-Nov-14 19:31N 48°32' W 122°35'4 8.2
2017-Nov-14 19:00N 48°36' W 122°34'2 3.6
2017-Nov-14 18:30N 48°37' W 122°34'2 3.9
2017-Nov-14 18:00N 48°36' W 122°35'4 7.6
2017-Nov-14 17:30N 48°32' W 122°34'1 2.7
2017-Nov-14 17:00N 48°31' W 122°35'0 0.2
2017-Nov-14 16:30N 48°31' W 122°35'1 2.4
2017-Nov-14 15:56N 48°31' W 122°37'0 0.0
2017-Nov-14 15:26N 48°31' W 122°37'0 0.0
2017-Nov-14 14:56N 48°31' W 122°37'0 0.0
2017-Nov-14 14:26N 48°31' W 122°37'0 0.0
2017-Nov-14 13:56N 48°31' W 122°37'0 0.0
2017-Nov-14 13:29N 48°31' W 122°37'0 0.0
2017-Nov-14 12:59N 48°31' W 122°37'0 0.0
2017-Nov-14 12:30N 48°31' W 122°37'0 0.0
2017-Nov-14 12:01N 48°31' W 122°37'0 0.0
2017-Nov-14 11:31N 48°31' W 122°37'0 0.0
2017-Nov-14 11:00N 48°31' W 122°37'0 0.0
2017-Nov-14 10:30N 48°31' W 122°37'0 0.0
2017-Nov-14 10:01N 48°31' W 122°37'0 0.0
2017-Nov-14 09:31N 48°31' W 122°37'0 0.0
2017-Nov-14 09:01N 48°31' W 122°37'0 0.0
2017-Nov-14 08:31N 48°31' W 122°37'0 0.0
2017-Nov-14 08:01N 48°31' W 122°37'0 0.0
2017-Nov-14 07:30N 48°31' W 122°37'0 0.0
2017-Nov-14 07:00N 48°31' W 122°37'0 0.0
2017-Nov-14 06:31N 48°31' W 122°37'0 0.0
2017-Nov-14 06:00N 48°31' W 122°37'0 0.0
2017-Nov-14 05:31N 48°31' W 122°37'0 0.0
2017-Nov-14 05:00N 48°31' W 122°37'0 0.0
2017-Nov-14 04:31N 48°31' W 122°37'0 0.0
2017-Nov-14 04:00N 48°31' W 122°37'0 0.0
2017-Nov-14 03:30N 48°31' W 122°37'0 0.0
2017-Nov-14 03:00N 48°31' W 122°37'0 0.0
2017-Nov-14 02:31N 48°31' W 122°37'0 0.6
2017-Nov-14 02:01N 48°31' W 122°37'4 7.6
2017-Nov-14 01:30N 48°30' W 122°42'0 0.7
2017-Nov-14 01:01N 48°30' W 122°43'4 8.7
2017-Nov-14 00:30N 48°31' W 122°37'0 0.1
2017-Nov-13 23:59N 48°31' W 122°37'0 0.0
2017-Nov-13 23:29N 48°31' W 122°37'0 0.0
2017-Nov-13 22:59N 48°31' W 122°37'0 0.2
2017-Nov-13 22:26N 48°31' W 122°36'0 0.0
2017-Nov-13 21:56N 48°31' W 122°36'0 0.0
2017-Nov-13 01:57N 48°31' W 122°37'0 0.0
2017-Nov-13 01:27N 48°31' W 122°37'0 0.0
2017-Nov-13 00:57N 48°31' W 122°37'0 0.0
2017-Nov-13 00:27N 48°31' W 122°37'0 0.0
2017-Nov-12 23:57N 48°31' W 122°37'0 0.0
2017-Nov-12 23:30N 48°31' W 122°37'1 2.8
2017-Nov-12 23:00N 48°31' W 122°35'0 0.4
2017-Nov-12 22:30N 48°31' W 122°35'1 1.6
2017-Nov-12 22:00N 48°32' W 122°35'2 3.6
2017-Nov-12 21:30N 48°33' W 122°35'3 6.4
2017-Nov-12 21:01N 48°36' W 122°34'0 0.8
2017-Nov-12 20:30N 48°36' W 122°35'5 9.3
2017-Nov-12 20:00N 48°31' W 122°35'1 1.6
2017-Nov-12 19:25N 48°31' W 122°37'0 0.0
2017-Nov-12 18:58N 48°31' W 122°37'0 0.1
2017-Nov-12 18:28N 48°31' W 122°37'0 0.1
2017-Nov-12 17:55N 48°31' W 122°37'0 0.1
2017-Nov-12 17:28N 48°31' W 122°37'0 0.0
2017-Nov-12 16:58N 48°31' W 122°37'0 0.1
2017-Nov-12 16:28N 48°31' W 122°37'0 0.0
2017-Nov-12 15:58N 48°31' W 122°37'1 2.9
2017-Nov-12 15:30N 48°32' W 122°35'4 8.0
2017-Nov-12 15:00N 48°36' W 122°36'5 9.9
2017-Nov-12 14:30N 48°40' W 122°40'6 9.6
2017-Nov-12 13:54N 48°45' W 122°44'510.1
2017-Nov-12 13:25N 48°50' W 122°45'0 0.1
2017-Nov-12 12:00N 48°49' W 122°45'5 9.1
2017-Nov-12 11:28N 48°45' W 122°45'5 9.8
2017-Nov-12 11:00N 48°41' W 122°41'510.3
2017-Nov-12 10:31N 48°36' W 122°37'510.3
2017-Nov-12 10:00N 48°32' W 122°34'2 2.4
2017-Nov-12 09:19N 48°31' W 122°37'0 0.0
2017-Nov-12 08:55N 48°31' W 122°37'0 0.0
2017-Nov-12 08:25N 48°31' W 122°37'0 0.0
2017-Nov-12 07:55N 48°31' W 122°37'0 0.0
2017-Nov-12 07:25N 48°31' W 122°37'0 0.0
2017-Nov-12 06:55N 48°31' W 122°37'0 0.0
2017-Nov-12 06:25N 48°31' W 122°37'0 0.0
2017-Nov-12 05:55N 48°31' W 122°37'0 0.0
2017-Nov-12 05:25N 48°31' W 122°37'0 0.0
2017-Nov-12 04:55N 48°31' W 122°37'0 0.0
2017-Nov-12 04:25N 48°31' W 122°37'0 0.0
2017-Nov-12 03:55N 48°31' W 122°37'0 0.0
2017-Nov-12 03:30N 48°31' W 122°37'2 3.1
2017-Nov-12 03:00N 48°31' W 122°39'4 8.4
2017-Nov-12 02:30N 48°29' W 122°44'7 9.7
2017-Nov-12 01:47N 48°22' W 122°45'2410.9
2017-Nov-11 23:34N 47°59' W 122°35'113.3
2017-Nov-11 23:30N 47°58' W 122°34'612.2
2017-Nov-11 23:00N 47°54' W 122°28'611.8
2017-Nov-11 22:30N 47°48' W 122°26'611.5
2017-Nov-11 22:00N 47°42' W 122°26'611.6
2017-Nov-11 21:31N 47°36' W 122°26'611.1
2017-Nov-11 21:01N 47°31' W 122°25'510.6
2017-Nov-11 20:30N 47°26' W 122°23'5 9.0
2017-Nov-11 20:01N 47°21' W 122°23'4 8.3
2017-Nov-11 19:30N 47°18' W 122°26'1 0.2
2017-Nov-11 16:44N 47°18' W 122°25'0 0.0
2017-Nov-11 16:23N 47°18' W 122°25'0 0.0
2017-Nov-11 15:57N 47°18' W 122°25'2 3.7
2017-Nov-11 15:30N 47°16' W 122°24'1 1.2
2017-Nov-11 15:01N 47°16' W 122°23'1 2.1
2017-Nov-11 14:30N 47°16' W 122°24'2 4.1
2017-Nov-11 14:00N 47°18' W 122°27'1 0.2
2017-Nov-11 08:36N 47°18' W 122°25'0 0.0
2017-Nov-11 08:25N 47°18' W 122°25'3 6.5
2017-Nov-11 08:01N 47°20' W 122°27'510.4
2017-Nov-11 07:31N 47°23' W 122°22'510.5
2017-Nov-11 07:01N 47°28' W 122°25'510.8
2017-Nov-11 06:30N 47°33' W 122°27'4 9.0
2017-Nov-11 06:01N 47°36' W 122°21'1 2.6
2017-Nov-11 05:29N 47°34' W 122°21'0 0.0
2017-Nov-11 04:56N 47°34' W 122°21'0 0.1
2017-Nov-11 04:29N 47°34' W 122°21'0 0.0
2017-Nov-11 03:59N 47°34' W 122°21'0 0.0
2017-Nov-11 03:29N 47°34' W 122°21'0 0.0
2017-Nov-11 02:59N 47°34' W 122°21'0 0.0
2017-Nov-11 02:29N 47°34' W 122°21'0 0.0
2017-Nov-11 01:59N 47°34' W 122°21'0 0.0
2017-Nov-11 01:29N 47°34' W 122°21'0 0.0
2017-Nov-11 00:59N 47°34' W 122°21'0 0.0
2017-Nov-11 00:29N 47°34' W 122°21'0 0.0
2017-Nov-10 23:56N 47°34' W 122°21'0 0.0
2017-Nov-10 23:29N 47°34' W 122°21'0 0.0
2017-Nov-10 22:59N 47°34' W 122°21'0 0.0
2017-Nov-10 22:29N 47°34' W 122°21'0 0.6
2017-Nov-10 22:00N 47°35' W 122°21'0 0.5
2017-Nov-10 21:30N 47°34' W 122°21'0 0.2
2017-Nov-10 21:00N 47°34' W 122°21'0 0.0
2017-Nov-10 20:30N 47°34' W 122°21'0 0.0
2017-Nov-10 20:00N 47°34' W 122°21'0 0.0
2017-Nov-10 19:30N 47°34' W 122°21'0 0.0
2017-Nov-10 19:00N 47°34' W 122°21'0 0.0
2017-Nov-10 18:30N 47°34' W 122°21'0 0.0
2017-Nov-10 18:00N 47°34' W 122°21'0 0.0
2017-Nov-10 17:30N 47°34' W 122°21'0 0.0
2017-Nov-10 17:00N 47°34' W 122°21'0 0.0
2017-Nov-10 16:30N 47°34' W 122°21'0 0.0
2017-Nov-10 16:00N 47°34' W 122°21'0 0.0
2017-Nov-10 15:30N 47°34' W 122°21'0 0.0
2017-Nov-10 15:00N 47°34' W 122°21'0 0.0
2017-Nov-10 14:30N 47°34' W 122°21'0 0.0
2017-Nov-10 14:00N 47°34' W 122°21'0 0.0
2017-Nov-10 13:30N 47°34' W 122°21'0 0.4
2017-Nov-10 13:00N 47°35' W 122°21'4 8.4
2017-Nov-10 12:30N 47°38' W 122°25'5 9.3
2017-Nov-10 12:01N 47°42' W 122°28'510.7
2017-Nov-10 11:30N 47°47' W 122°27'611.1
2017-Nov-10 11:00N 47°52' W 122°29'510.7
2017-Nov-10 10:30N 47°57' W 122°34'15 9.0
2017-Nov-10 08:49N 48°10' W 122°46'3 8.6
2017-Nov-10 08:29N 48°12' W 122°49'610.7
2017-Nov-10 07:59N 48°17' W 122°48'613.1
2017-Nov-10 07:30N 48°23' W 122°45'714.0
2017-Nov-10 07:00N 48°30' W 122°43'613.0
2017-Nov-10 06:31N 48°36' W 122°38'3 5.3
2017-Nov-10 06:00N 48°36' W 122°34'0 0.8
2017-Nov-10 05:30N 48°36' W 122°34'3 6.5
2017-Nov-10 05:00N 48°33' W 122°34'2 4.1
2017-Nov-10 04:30N 48°31' W 122°35'2 3.7
2017-Nov-10 04:00N 48°32' W 122°37'510.4
2017-Nov-10 03:30N 48°29' W 122°44'811.8
2017-Nov-10 02:50N 48°21' W 122°45'2310.6
2017-Nov-10 00:42N 47°59' W 122°35'212.3
2017-Nov-10 00:31N 47°57' W 122°33'611.9
2017-Nov-10 00:00N 47°53' W 122°28'612.7
2017-Nov-09 23:30N 47°46' W 122°26'612.7
2017-Nov-09 23:00N 47°40' W 122°27'612.6
2017-Nov-09 22:30N 47°34' W 122°26'612.3
2017-Nov-09 22:00N 47°28' W 122°24'611.6
2017-Nov-09 21:30N 47°22' W 122°22'611.2
2017-Nov-09 21:00N 47°18' W 122°27'1 1.0
2017-Nov-09 19:54N 47°18' W 122°25'  
Track history (hours):
 
Tides and Currents Weather Stations Pressure Air Temp Water Temp Dewpoint Dewpoint Depression Visibility Wind Speed Wind Dir Waves Ship Positions

Dr. Hank Kaplan

Owner: Harley Marine Services, Inc., Seattle, WA. More information available from US FCC via Universal Licensing System and Coast Guard Vessel Documentation Center.

Last reported at 2017-Nov-19 17:59 UTC. Time now 2017-Nov-19 18:23 UTC.
Position N 48°31' W 122°37'.

Length 24 m; draft 5.1 m.

Type: Tug. MMSI: 367719100.

Date/timePositionNaut miles runAvg speedWind from/ knotsBaromVisibWave heightAir tempDewpointWater temp
2017-Nov-19 17:59N 48°31' W 122°37'0 0.0
2017-Nov-19 17:30N 48°31' W 122°37'0 0.0
2017-Nov-19 17:00N 48°31' W 122°37'2 4.6
2017-Nov-19 16:30N 48°33' W 122°35'4 8.1
2017-Nov-19 16:00N 48°37' W 122°37'4 8.5
2017-Nov-19 15:30N 48°40' W 122°41'4 7.1
2017-Nov-19 15:01N 48°43' W 122°44'5 8.4
2017-Nov-19 14:28N 48°48' W 122°44'1 0.2
2017-Nov-19 07:03N 48°49' W 122°43'1 2.1
2017-Nov-19 06:40N 48°48' W 122°44'1 4.8
2017-Nov-19 06:25N 48°47' W 122°44'3 6.6
2017-Nov-19 06:00N 48°45' W 122°45'5 9.9
2017-Nov-19 05:30N 48°40' W 122°41'510.1
2017-Nov-19 05:00N 48°36' W 122°37'5 9.3
2017-Nov-19 04:30N 48°32' W 122°35'1 2.1
2017-Nov-19 03:58N 48°31' W 122°37'0 0.0
2017-Nov-19 03:28N 48°31' W 122°37'0 0.0
2017-Nov-19 02:55N 48°31' W 122°37'1 1.8
2017-Nov-19 02:30N 48°31' W 122°36'1 1.4
2017-Nov-19 02:00N 48°31' W 122°35'0 0.9
2017-Nov-19 01:31N 48°31' W 122°35'3 6.2
2017-Nov-19 01:00N 48°34' W 122°35'3 6.5
2017-Nov-19 00:30N 48°37' W 122°34'1 2.9
2017-Nov-19 00:00N 48°36' W 122°35'5 9.5
2017-Nov-18 23:31N 48°31' W 122°37'0 0.3
2017-Nov-18 23:00N 48°31' W 122°37'0 0.0
2017-Nov-18 22:30N 48°31' W 122°37'0 0.0
2017-Nov-18 22:00N 48°31' W 122°37'0 0.0
2017-Nov-18 21:30N 48°31' W 122°37'4 8.0
2017-Nov-18 21:00N 48°30' W 122°43'611.1
2017-Nov-18 20:30N 48°25' W 122°44'611.0
2017-Nov-18 19:59N 48°19' W 122°46'2010.5
2017-Nov-18 18:03N 48°00' W 122°36'112.7
2017-Nov-18 17:59N 47°59' W 122°35'612.0
2017-Nov-18 17:31N 47°55' W 122°29'611.8
2017-Nov-18 17:00N 47°50' W 122°27'611.5
2017-Nov-18 16:30N 47°44' W 122°26'510.2
2017-Nov-18 16:01N 47°39' W 122°27'611.4
2017-Nov-18 15:30N 47°33' W 122°26'511.0
2017-Nov-18 15:00N 47°28' W 122°24'510.9
2017-Nov-18 14:30N 47°23' W 122°21'511.0
2017-Nov-18 14:01N 47°19' W 122°27'3 6.5
2017-Nov-18 13:30N 47°16' W 122°24'1 1.5
2017-Nov-18 13:01N 47°16' W 122°23'0 0.1
2017-Nov-18 12:30N 47°16' W 122°23'2 4.1
2017-Nov-18 12:00N 47°18' W 122°25'0 0.0
2017-Nov-18 10:25N 47°18' W 122°25'0 0.0
2017-Nov-18 08:01N 47°18' W 122°25'0 0.0
2017-Nov-18 07:37N 47°18' W 122°25'1 5.2
2017-Nov-18 07:31N 47°17' W 122°25'2 3.4
2017-Nov-18 07:00N 47°15' W 122°26'1 2.0
2017-Nov-18 06:30N 47°16' W 122°27'1 1.9
2017-Nov-18 06:00N 47°17' W 122°27'1 1.4
2017-Nov-18 05:30N 47°17' W 122°27'1 2.2
2017-Nov-18 05:01N 47°16' W 122°25'1 1.9
2017-Nov-18 04:31N 47°17' W 122°25'4 7.7
2017-Nov-18 04:01N 47°21' W 122°26'5 9.3
2017-Nov-18 03:30N 47°25' W 122°23'611.2
2017-Nov-18 03:00N 47°30' W 122°26'5 9.6
2017-Nov-18 02:31N 47°35' W 122°26'4 7.5
2017-Nov-18 02:00N 47°35' W 122°21'0 0.8
2017-Nov-18 01:29N 47°34' W 122°21'0 0.0
2017-Nov-18 00:55N 47°34' W 122°21'0 0.0
2017-Nov-18 00:28N 47°34' W 122°21'0 0.0
2017-Nov-17 23:58N 47°34' W 122°21'0 0.0
2017-Nov-17 23:29N 47°34' W 122°21'0 0.0
2017-Nov-17 22:58N 47°34' W 122°21'0 0.0
2017-Nov-17 22:28N 47°34' W 122°21'0 0.0
2017-Nov-17 22:00N 47°34' W 122°21'1 1.3
2017-Nov-17 21:31N 47°35' W 122°21'1 2.8
2017-Nov-17 21:00N 47°36' W 122°21'0 0.5
2017-Nov-17 20:30N 47°37' W 122°21'2 4.3
2017-Nov-17 19:58N 47°34' W 122°21'0 0.1
2017-Nov-17 19:29N 47°34' W 122°21'0 0.0
2017-Nov-17 18:59N 47°34' W 122°21'0 0.0
2017-Nov-17 18:26N 47°34' W 122°21'0 0.0
2017-Nov-17 17:59N 47°34' W 122°21'0 0.0
2017-Nov-17 17:29N 47°34' W 122°21'0 0.0
2017-Nov-17 16:59N 47°34' W 122°21'0 0.0
2017-Nov-17 16:29N 47°34' W 122°21'0 0.0
2017-Nov-17 15:59N 47°34' W 122°21'0 0.0
2017-Nov-17 15:29N 47°34' W 122°21'0 0.0
2017-Nov-17 14:59N 47°34' W 122°21'0 0.0
2017-Nov-17 14:29N 47°34' W 122°21'0 0.0
2017-Nov-17 13:59N 47°34' W 122°21'0 0.0
2017-Nov-17 13:29N 47°34' W 122°21'0 0.0
2017-Nov-17 12:59N 47°34' W 122°21'0 0.0
2017-Nov-17 12:29N 47°34' W 122°21'0 0.0
2017-Nov-17 11:59N 47°34' W 122°21'0 0.0
2017-Nov-17 11:29N 47°34' W 122°21'0 0.0
2017-Nov-17 10:59N 47°34' W 122°21'0 0.0
2017-Nov-17 10:30N 47°34' W 122°21'3 5.9
2017-Nov-17 10:01N 47°37' W 122°23'510.1
2017-Nov-17 09:30N 47°41' W 122°28'510.9
2017-Nov-17 09:00N 47°46' W 122°27'510.9
2017-Nov-17 08:30N 47°51' W 122°29'510.8
2017-Nov-17 08:00N 47°56' W 122°32'1511.2
2017-Nov-17 06:38N 48°09' W 122°45'211.0
2017-Nov-17 06:27N 48°11' W 122°47'4 9.6
2017-Nov-17 05:59N 48°15' W 122°49'511.3
2017-Nov-17 05:30N 48°20' W 122°47'612.3
2017-Nov-17 05:01N 48°26' W 122°45'713.6
2017-Nov-17 04:30N 48°33' W 122°45'713.2
2017-Nov-17 04:01N 48°40' W 122°44'611.7
2017-Nov-17 03:28N 48°46' W 122°45'4 0.2
2017-Nov-16 07:41N 48°49' W 122°43'1 3.5
2017-Nov-16 07:24N 48°49' W 122°44'1 0.1
2017-Nov-15 22:39N 48°49' W 122°43'0 0.1
2017-Nov-15 22:08N 48°49' W 122°43'0 3.6
2017-Nov-15 22:00N 48°49' W 122°43'612.2
2017-Nov-15 21:31N 48°43' W 122°44'612.6
2017-Nov-15 21:00N 48°38' W 122°38'612.0
2017-Nov-15 20:30N 48°32' W 122°34'2 4.0
2017-Nov-15 20:00N 48°31' W 122°37'0 0.0
2017-Nov-15 19:30N 48°31' W 122°37'0 0.0
2017-Nov-15 19:00N 48°31' W 122°37'0 0.2
2017-Nov-15 18:30N 48°31' W 122°36'0 0.1
2017-Nov-15 18:00N 48°31' W 122°36'1 2.9
2017-Nov-15 17:30N 48°31' W 122°35'1 2.0
2017-Nov-15 17:00N 48°31' W 122°36'1 1.3
2017-Nov-15 16:30N 48°31' W 122°37'0 0.0
2017-Nov-15 15:54N 48°31' W 122°37'0 0.0
2017-Nov-15 15:30N 48°31' W 122°37'0 0.0
2017-Nov-15 15:00N 48°31' W 122°37'0 0.0
2017-Nov-15 14:30N 48°31' W 122°37'0 0.0
2017-Nov-15 14:00N 48°31' W 122°37'0 0.0
2017-Nov-15 13:24N 48°31' W 122°37'0 0.0
2017-Nov-15 13:00N 48°31' W 122°37'0 0.0
2017-Nov-15 12:30N 48°31' W 122°37'0 0.0
2017-Nov-15 12:00N 48°31' W 122°37'0 0.0
2017-Nov-15 11:30N 48°31' W 122°37'0 0.0
2017-Nov-15 11:00N 48°31' W 122°37'0 0.0
2017-Nov-15 10:30N 48°31' W 122°37'0 0.0
2017-Nov-15 10:00N 48°31' W 122°37'0 0.0
2017-Nov-15 09:15N 48°31' W 122°37'0 0.0
2017-Nov-15 09:00N 48°31' W 122°37'0 0.0
2017-Nov-15 08:27N 48°31' W 122°37'0 0.0
2017-Nov-15 07:57N 48°31' W 122°37'0 0.0
2017-Nov-15 07:27N 48°31' W 122°37'0 0.0
2017-Nov-15 07:00N 48°31' W 122°37'0 0.0
2017-Nov-15 06:30N 48°31' W 122°37'0 0.1
2017-Nov-15 06:01N 48°31' W 122°37'2 3.5
2017-Nov-15 05:30N 48°30' W 122°34'1 1.8
2017-Nov-15 05:01N 48°31' W 122°35'3 6.3
2017-Nov-15 04:30N 48°34' W 122°35'3 5.8
2017-Nov-15 04:01N 48°32' W 122°34'2 3.4
2017-Nov-15 03:30N 48°31' W 122°37'0 0.0
2017-Nov-15 02:55N 48°31' W 122°37'0 0.0
2017-Nov-15 02:25N 48°31' W 122°37'0 0.0
2017-Nov-15 01:55N 48°31' W 122°37'0 0.0
2017-Nov-15 01:19N 48°31' W 122°37'0 0.0
2017-Nov-15 00:55N 48°31' W 122°37'0 0.0
2017-Nov-15 00:28N 48°31' W 122°37'0 0.0
2017-Nov-14 23:55N 48°31' W 122°37'0 0.0
2017-Nov-14 23:19N 48°31' W 122°37'0 0.0
2017-Nov-14 22:55N 48°31' W 122°37'0 0.0
2017-Nov-14 22:28N 48°31' W 122°37'0 0.0
2017-Nov-14 21:55N 48°31' W 122°37'0 0.0
2017-Nov-14 21:25N 48°31' W 122°37'0 0.0
2017-Nov-14 20:59N 48°31' W 122°37'0 0.0
2017-Nov-14 20:30N 48°31' W 122°37'0 0.0
2017-Nov-14 20:00N 48°31' W 122°37'1 2.2
2017-Nov-14 19:31N 48°32' W 122°35'4 8.2
2017-Nov-14 19:00N 48°36' W 122°34'2 3.6
2017-Nov-14 18:30N 48°37' W 122°34'2 3.9
2017-Nov-14 18:00N 48°36' W 122°35'4 7.6
2017-Nov-14 17:30N 48°32' W 122°34'1 2.7
2017-Nov-14 17:00N 48°31' W 122°35'0 0.2
2017-Nov-14 16:30N 48°31' W 122°35'1 2.4
2017-Nov-14 15:56N 48°31' W 122°37'0 0.0
2017-Nov-14 15:26N 48°31' W 122°37'0 0.0
2017-Nov-14 14:56N 48°31' W 122°37'0 0.0
2017-Nov-14 14:26N 48°31' W 122°37'0 0.0
2017-Nov-14 13:56N 48°31' W 122°37'0 0.0
2017-Nov-14 13:29N 48°31' W 122°37'0 0.0
2017-Nov-14 12:59N 48°31' W 122°37'0 0.0
2017-Nov-14 12:30N 48°31' W 122°37'0 0.0
2017-Nov-14 12:01N 48°31' W 122°37'0 0.0
2017-Nov-14 11:31N 48°31' W 122°37'0 0.0
2017-Nov-14 11:00N 48°31' W 122°37'0 0.0
2017-Nov-14 10:30N 48°31' W 122°37'0 0.0
2017-Nov-14 10:01N 48°31' W 122°37'0 0.0
2017-Nov-14 09:31N 48°31' W 122°37'0 0.0
2017-Nov-14 09:01N 48°31' W 122°37'0 0.0
2017-Nov-14 08:31N 48°31' W 122°37'0 0.0
2017-Nov-14 08:01N 48°31' W 122°37'0 0.0
2017-Nov-14 07:30N 48°31' W 122°37'0 0.0
2017-Nov-14 07:00N 48°31' W 122°37'0 0.0
2017-Nov-14 06:31N 48°31' W 122°37'0 0.0
2017-Nov-14 06:00N 48°31' W 122°37'0 0.0
2017-Nov-14 05:31N 48°31' W 122°37'0 0.0
2017-Nov-14 05:00N 48°31' W 122°37'0 0.0
2017-Nov-14 04:31N 48°31' W 122°37'0 0.0
2017-Nov-14 04:00N 48°31' W 122°37'0 0.0
2017-Nov-14 03:30N 48°31' W 122°37'0 0.0
2017-Nov-14 03:00N 48°31' W 122°37'0 0.0
2017-Nov-14 02:31N 48°31' W 122°37'0 0.6
2017-Nov-14 02:01N 48°31' W 122°37'4 7.6
2017-Nov-14 01:30N 48°30' W 122°42'0 0.7
2017-Nov-14 01:01N 48°30' W 122°43'4 8.7
2017-Nov-14 00:30N 48°31' W 122°37'0 0.1
2017-Nov-13 23:59N 48°31' W 122°37'0 0.0
2017-Nov-13 23:29N 48°31' W 122°37'0 0.0
2017-Nov-13 22:59N 48°31' W 122°37'0 0.2
2017-Nov-13 22:26N 48°31' W 122°36'0 0.0
2017-Nov-13 21:56N 48°31' W 122°36'0 0.0
2017-Nov-13 01:57N 48°31' W 122°37'0 0.0
2017-Nov-13 01:27N 48°31' W 122°37'0 0.0
2017-Nov-13 00:57N 48°31' W 122°37'0 0.0
2017-Nov-13 00:27N 48°31' W 122°37'0 0.0
2017-Nov-12 23:57N 48°31' W 122°37'0 0.0
2017-Nov-12 23:30N 48°31' W 122°37'1 2.8
2017-Nov-12 23:00N 48°31' W 122°35'0 0.4
2017-Nov-12 22:30N 48°31' W 122°35'1 1.6
2017-Nov-12 22:00N 48°32' W 122°35'2 3.6
2017-Nov-12 21:30N 48°33' W 122°35'3 6.4
2017-Nov-12 21:01N 48°36' W 122°34'0 0.8
2017-Nov-12 20:30N 48°36' W 122°35'5 9.3
2017-Nov-12 20:00N 48°31' W 122°35'1 1.6
2017-Nov-12 19:25N 48°31' W 122°37'0 0.0
2017-Nov-12 18:58N 48°31' W 122°37'0 0.1
2017-Nov-12 18:28N 48°31' W 122°37'0 0.1
2017-Nov-12 17:55N 48°31' W 122°37'0 0.1
2017-Nov-12 17:28N 48°31' W 122°37'0 0.0
2017-Nov-12 16:58N 48°31' W 122°37'0 0.1
2017-Nov-12 16:28N 48°31' W 122°37'0 0.0
2017-Nov-12 15:58N 48°31' W 122°37'1 2.9
2017-Nov-12 15:30N 48°32' W 122°35'4 8.0
2017-Nov-12 15:00N 48°36' W 122°36'5 9.9
2017-Nov-12 14:30N 48°40' W 122°40'6 9.6
2017-Nov-12 13:54N 48°45' W 122°44'510.1
2017-Nov-12 13:25N 48°50' W 122°45'0 0.1
2017-Nov-12 12:00N 48°49' W 122°45'5 9.1
2017-Nov-12 11:28N 48°45' W 122°45'5 9.8
2017-Nov-12 11:00N 48°41' W 122°41'510.3
2017-Nov-12 10:31N 48°36' W 122°37'510.3
2017-Nov-12 10:00N 48°32' W 122°34'2 2.4
2017-Nov-12 09:19N 48°31' W 122°37'0 0.0
2017-Nov-12 08:55N 48°31' W 122°37'0 0.0
2017-Nov-12 08:25N 48°31' W 122°37'0 0.0
2017-Nov-12 07:55N 48°31' W 122°37'0 0.0
2017-Nov-12 07:25N 48°31' W 122°37'0 0.0
2017-Nov-12 06:55N 48°31' W 122°37'0 0.0
2017-Nov-12 06:25N 48°31' W 122°37'0 0.0
2017-Nov-12 05:55N 48°31' W 122°37'0 0.0
2017-Nov-12 05:25N 48°31' W 122°37'0 0.0
2017-Nov-12 04:55N 48°31' W 122°37'0 0.0
2017-Nov-12 04:25N 48°31' W 122°37'0 0.0
2017-Nov-12 03:55N 48°31' W 122°37'0 0.0
2017-Nov-12 03:30N 48°31' W 122°37'2 3.1
2017-Nov-12 03:00N 48°31' W 122°39'4 8.4
2017-Nov-12 02:30N 48°29' W 122°44'7 9.7
2017-Nov-12 01:47N 48°22' W 122°45'2410.9
2017-Nov-11 23:34N 47°59' W 122°35'113.3
2017-Nov-11 23:30N 47°58' W 122°34'612.2
2017-Nov-11 23:00N 47°54' W 122°28'611.8
2017-Nov-11 22:30N 47°48' W 122°26'611.5
2017-Nov-11 22:00N 47°42' W 122°26'611.6
2017-Nov-11 21:31N 47°36' W 122°26'611.1
2017-Nov-11 21:01N 47°31' W 122°25'510.6
2017-Nov-11 20:30N 47°26' W 122°23'5 9.0
2017-Nov-11 20:01N 47°21' W 122°23'4 8.3
2017-Nov-11 19:30N 47°18' W 122°26'1 0.2
2017-Nov-11 16:44N 47°18' W 122°25'0 0.0
2017-Nov-11 16:23N 47°18' W 122°25'0 0.0
2017-Nov-11 15:57N 47°18' W 122°25'2 3.7
2017-Nov-11 15:30N 47°16' W 122°24'1 1.2
2017-Nov-11 15:01N 47°16' W 122°23'1 2.1
2017-Nov-11 14:30N 47°16' W 122°24'2 4.1
2017-Nov-11 14:00N 47°18' W 122°27'1 0.2
2017-Nov-11 08:36N 47°18' W 122°25'0 0.0
2017-Nov-11 08:25N 47°18' W 122°25'3 6.5
2017-Nov-11 08:01N 47°20' W 122°27'510.4
2017-Nov-11 07:31N 47°23' W 122°22'510.5
2017-Nov-11 07:01N 47°28' W 122°25'510.8
2017-Nov-11 06:30N 47°33' W 122°27'4 9.0
2017-Nov-11 06:01N 47°36' W 122°21'1 2.6
2017-Nov-11 05:29N 47°34' W 122°21'0 0.0
2017-Nov-11 04:56N 47°34' W 122°21'0 0.1
2017-Nov-11 04:29N 47°34' W 122°21'0 0.0
2017-Nov-11 03:59N 47°34' W 122°21'0 0.0
2017-Nov-11 03:29N 47°34' W 122°21'0 0.0
2017-Nov-11 02:59N 47°34' W 122°21'0 0.0
2017-Nov-11 02:29N 47°34' W 122°21'0 0.0
2017-Nov-11 01:59N 47°34' W 122°21'0 0.0
2017-Nov-11 01:29N 47°34' W 122°21'0 0.0
2017-Nov-11 00:59N 47°34' W 122°21'0 0.0
2017-Nov-11 00:29N 47°34' W 122°21'0 0.0
2017-Nov-10 23:56N 47°34' W 122°21'0 0.0
2017-Nov-10 23:29N 47°34' W 122°21'0 0.0
2017-Nov-10 22:59N 47°34' W 122°21'0 0.0
2017-Nov-10 22:29N 47°34' W 122°21'0 0.6
2017-Nov-10 22:00N 47°35' W 122°21'0 0.5
2017-Nov-10 21:30N 47°34' W 122°21'0 0.2
2017-Nov-10 21:00N 47°34' W 122°21'0 0.0
2017-Nov-10 20:30N 47°34' W 122°21'0 0.0
2017-Nov-10 20:00N 47°34' W 122°21'0 0.0
2017-Nov-10 19:30N 47°34' W 122°21'0 0.0
2017-Nov-10 19:00N 47°34' W 122°21'0 0.0
2017-Nov-10 18:30N 47°34' W 122°21'0 0.0
2017-Nov-10 18:00N 47°34' W 122°21'0 0.0
2017-Nov-10 17:30N 47°34' W 122°21'0 0.0
2017-Nov-10 17:00N 47°34' W 122°21'0 0.0
2017-Nov-10 16:30N 47°34' W 122°21'0 0.0
2017-Nov-10 16:00N 47°34' W 122°21'0 0.0
2017-Nov-10 15:30N 47°34' W 122°21'0 0.0
2017-Nov-10 15:00N 47°34' W 122°21'0 0.0
2017-Nov-10 14:30N 47°34' W 122°21'0 0.0
2017-Nov-10 14:00N 47°34' W 122°21'0 0.0
2017-Nov-10 13:30N 47°34' W 122°21'0 0.4
2017-Nov-10 13:00N 47°35' W 122°21'4 8.4
2017-Nov-10 12:30N 47°38' W 122°25'5 9.3
2017-Nov-10 12:01N 47°42' W 122°28'510.7
2017-Nov-10 11:30N 47°47' W 122°27'611.1
2017-Nov-10 11:00N 47°52' W 122°29'510.7
2017-Nov-10 10:30N 47°57' W 122°34'15 9.0
2017-Nov-10 08:49N 48°10' W 122°46'3 8.6
2017-Nov-10 08:29N 48°12' W 122°49'610.7
2017-Nov-10 07:59N 48°17' W 122°48'613.1
2017-Nov-10 07:30N 48°23' W 122°45'714.0
2017-Nov-10 07:00N 48°30' W 122°43'613.0
2017-Nov-10 06:31N 48°36' W 122°38'3 5.3
2017-Nov-10 06:00N 48°36' W 122°34'0 0.8
2017-Nov-10 05:30N 48°36' W 122°34'3 6.5
2017-Nov-10 05:00N 48°33' W 122°34'2 4.1
2017-Nov-10 04:30N 48°31' W 122°35'2 3.7
2017-Nov-10 04:00N 48°32' W 122°37'510.4
2017-Nov-10 03:30N 48°29' W 122°44'811.8
2017-Nov-10 02:50N 48°21' W 122°45'2310.6
2017-Nov-10 00:42N 47°59' W 122°35'212.3
2017-Nov-10 00:31N 47°57' W 122°33'611.9
2017-Nov-10 00:00N 47°53' W 122°28'612.7
2017-Nov-09 23:30N 47°46' W 122°26'612.7
2017-Nov-09 23:00N 47°40' W 122°27'612.6
2017-Nov-09 22:30N 47°34' W 122°26'612.3
2017-Nov-09 22:00N 47°28' W 122°24'611.6
2017-Nov-09 21:30N 47°22' W 122°22'611.2
2017-Nov-09 21:00N 47°18' W 122°27'1 1.0
2017-Nov-09 19:54N 47°18' W 122°25'  

Dump ship's entire track history